Decoded Metar for KAWM (W MEMPHIS MUNI in AR, USA) (IATA:AWM) | Meteo·Mobile Aviation Weather
aviador You're here:

KAWM Decoded Metar

W MEMPHIS MUNI in AR, USA
Report Time2018-12-11 23:53:00
UTC Time2018-12-12 00:55:54
Flight Rules vfr VFR
Wind180° at 10 kt
W.Decomp.*RWY 17: 9.9 kt HW 1.6 kt RCW
W.Rank180° ranks 2
Current wind is above 180° avg. (8.2)
Visibility9999 m
Phenomena:N/A
Clouds:N/A
Expected CloudBase > 1,600 ft AGL from Temp-Dew spread
CeilingNone
Temp06°C (ISA -9)
Dew Point02°C (76% RH)
AAT0.7°C
QNH1024 hPa
Density Alt-1,096 ft
Elevation213 ft
Report Wrong Elevation
Raw Report
KAWM 112353Z AUTO 18010KT 10SM CLR 06/02 A3023 RMK AO2 SLP238
T00560017 10100 20056 56012 $=

Extra information for KAWM:More info

Metar Taf Metar & Taf Last 4 Metars F.Rules Stats Wind Profile Meteogram Temp Stats Airport Information Weather charts Add Link Nearby VenuesMetar ALERT Operation Metar Decoded Social comments

AIRNAV info for KAWM